Current Month

Pierce College

Hourly Data | America/Los_Angeles
as of 9/30/22 6:50 PM PDT
Date & Time Temp Max (°F) Temp Min (°F) RH (%) Dew Pt (°F) Latest Rain (In) Soil Temp (°F) Soil Moist (%) Wind Spd (mph) Wind Dir (°) Wind Gust (mph) Leaf Wet Raw (mV) Net Radiation (W/m²) Evap Pan Max Wind (mph) Evap Pan H2O Max Temp (°F) Evap Pan Level (In)
9/30/22 - 1800 81.6 77.9 33 48.1 0.00 84.3 25.3 1.8 ESE | 107 5.1 264 20 3.9 85.6 3.8
9/30/22 - 1700 83.4 81.2 35 51.9 0.00 83.8 25.3 2.3 ENE | 63 7.7 264 177 4.3 89.3 3.8
9/30/22 - 1600 84.4 82.1 37 54.0 0.00 83.6 25.2 3.1 E | 81 8.1 265 313 4.4 92.3 3.8
9/30/22 - 1500 85.4 82.9 41 57.9 0.00 83.4 25.1 3.0 ENE | 65 8.2 264 410 5.0 97.3 3.8
9/30/22 - 1400 85.1 82.0 42 58.0 0.00 83.0 25.1 2.3 NE | 44 5.3 265 470 3.6 98.3 3.8
9/30/22 - 1300 82.8 79.4 47 58.7 0.00 83.2 25.0 2.3 ENE | 57 6.2 266 493 4.3 98.8 3.8
9/30/22 - 1200 79.6 75.3 54 59.3 0.00 83.2 25.0 2.1 NE | 46 5.8 266 460 3.8 93.3 3.8
9/30/22 - 1100 75.8 71.8 61 59.6 0.00 83.1 25.0 1.7 NE | 47 7.5 266 386 4.4 85.6 3.8
9/30/22 - 1000 72.9 68.2 69 59.4 0.00 83.4 25.1 1.4 ESE | 123 4.2 268 201 3.2 84.4 3.8
9/30/22 - 0900 68.7 66.2 76 59.3 0.00 83.6 25.2 0.6 NNE | 24 2.8 270 66 2.4 76.4 3.8
9/30/22 - 0800 66.5 64.7 80 59.3 0.00 83.7 25.2 0.5 ENE | 57 2.4 272 9 1.6 70.3 3.8
9/30/22 - 0700 65.0 63.5 84 59.3 0.00 84.1 25.2 0.9 NE | 46 3.3 273 -8 1.8 66.7 3.8
9/30/22 - 0600 64.1 63.4 86 59.6 0.00 84.1 25.3 0.9 NE | 47 3.1 273 -5 3.3 66.4 3.8
9/30/22 - 0500 63.6 59.2 89 58.0 0.00 84.6 25.3 0.6 E | 101 2.3 296 -6 1.5 65.4 3.8
9/30/22 - 0400 60.5 59.0 89 56.5 0.00 84.6 25.3 0.3 SSE | 158 1.3 315 -21 0.0 54.2 3.8
9/30/22 - 0300 61.8 60.2 88 57.3 0.00 85.1 25.3 0.1 SSE | 164 1.0 291 -24 0.9 55.1 3.8
9/30/22 - 0200 63.8 61.6 86 58.5 0.00 85.0 25.4 0.1 S | 183 1.2 256 -35 1.5 57.5 3.8
9/30/22 - 0100 66.5 63.3 81 58.6 0.00 85.4 25.4 0.1 ESE | 117 1.8 240 -63 0.0 61.6 3.8
9/30/22 - 0000 68.2 66.3 75 59.1 0.00 84.8 25.4 0.6 NNE | 32 2.9 272 -73 0.8 65.1 3.8
9/29/22 - 2300 70.1 68.0 72 59.4 0.00 85.4 25.4 0.9 NNE | 33 2.2 270 -75 1.3 67.2 3.8
9/29/22 - 2200 72.2 70.0 65 58.7 0.00 85.4 25.4 0.6 NE | 47 2.4 268 -76 1.8 68.4 3.8
9/29/22 - 2100 77.5 71.6 42 49.8 0.00 85.4 25.4 0.5 S | 177 2.9 266 -76 2.3 73.3 3.8
9/29/22 - 2000 81.1 77.2 34 48.6 0.00 85.3 25.4 3.5 SW | 236 7.7 264 -86 5.3 79.5 3.8
9/29/22 - 1900 87.0 81.1 32 51.1 0.00 85.0 25.4 2.0 W | 262 6.3 264 -80 4.6 88.8 3.8
9/29/22 - 1800 91.5 86.8 30 53.9 0.00 84.6 25.3 1.0 NNW | 332 5.3 263 22 4.6 96.9 3.8
9/29/22 - 1700 95.7 91.0 28 55.7 0.00 82.2 25.3 1.2 NW | 313 6.6 263 167 5.8 103.5 3.8
9/29/22 - 1600 99.2 94.5 25 55.3 0.00 85.8 25.1 1.9 NW | 304 7.8 263 294 7.5 108.4 3.8
9/29/22 - 1500 97.8 95.8 25 55.7 0.00 85.5 25.1 2.3 NNE | 33 6.4 262 393 3.3 110.0 3.8
9/29/22 - 1400 96.5 94.0 28 56.9 0.00 85.2 25.1 2.4 ENE | 57 5.8 263 456 3.8 114.1 3.8
9/29/22 - 1300 96.0 92.4 29 56.6 0.00 84.5 25.0 1.5 NE | 55 4.8 263 472 4.1 115.5 3.8
9/29/22 - 1200 92.7 88.8 28 52.9 0.00 84.9 24.9 1.3 ENE | 61 5.8 263 453 3.5 106.7 3.8
9/29/22 - 1100 89.8 83.6 32 53.1 0.00 83.2 25.0 1.0 NNE | 19 2.9 263 385 3.1 97.0 3.8
9/29/22 - 1000 83.6 77.8 43 56.0 0.00 83.2 25.1 0.7 NE | 35 2.9 264 286 2.4 85.9 3.8
9/29/22 - 0900 78.1 70.3 53 56.5 0.00 83.7 25.2 0.4 E | 84 1.8 266 163 1.0 73.7 3.8
9/29/22 - 0800 71.3 60.9 72 55.2 0.00 83.9 25.3 0.1 SE | 129 0.9 269 -7 0.0 59.3 3.8
9/29/22 - 0700 61.7 60.8 77 54.0 0.00 82.9 25.3 0.2 S | 170 1.3 272 -49 0.9 54.8 3.8
9/29/22 - 0600 62.1 61.3 75 53.6 0.00 85.5 25.3 0.2 S | 178 1.4 270 -51 0.0 56.4 3.8
9/29/22 - 0500 63.3 61.6 73 53.9 0.00 86.5 25.3 0.1 SSE | 150 1.1 270 -52 0.0 56.8 3.8
9/29/22 - 0400 64.0 63.0 72 54.3 0.00 87.6 25.4 0.2 S | 173 1.1 270 -53 0.0 57.2 3.8
9/29/22 - 0300 65.1 63.5 69 53.8 0.00 87.4 25.4 0.4 SSE | 155 1.6 269 -56 0.0 58.4 3.8
9/29/22 - 0200 66.6 64.4 67 54.0 0.00 86.7 25.4 0.3 SSE | 159 1.3 268 -57 0.0 59.1 3.8
9/29/22 - 0100 67.6 66.3 65 54.8 0.00 85.9 25.5 0.2 SSE | 158 1.0 268 -59 0.0 60.4 3.8
9/29/22 - 0000 69.3 67.3 63 54.9 0.00 85.7 25.5 0.3 S | 182 1.4 268 -61 0.0 62.7 3.8
9/28/22 - 2300 70.9 69.2 59 55.0 0.00 85.8 25.5 0.2 S | 175 1.2 267 -64 0.7 65.1 3.8
9/28/22 - 2200 74.9 70.6 54 55.0 0.00 85.7 25.5 0.4 ESE | 120 2.3 266 -71 0.0 70.7 3.8
9/28/22 - 2100 79.0 74.7 48 55.6 0.00 85.8 25.5 0.8 E | 99 3.6 266 -78 1.9 76.7 3.8
9/28/22 - 2000 84.5 78.9 42 56.3 0.00 85.6 25.5 0.8 NE | 55 4.1 265 -84 2.6 80.1 3.8
9/28/22 - 1900 94.1 84.4 26 50.0 0.00 85.1 25.4 0.6 WNW | 293 3.9 263 -81 3.9 97.0 3.8
9/28/22 - 1800 99.2 94.0 19 48.0 0.00 86.9 25.4 1.2 NW | 309 6.7 262 18 6.0 103.4 3.8
9/28/22 - 1700 102.9 98.9 17 47.5 0.00 85.9 25.3 2.0 WNW | 295 9.4 261 164 7.0 110.3 3.8
9/28/22 - 1600 104.9 102.1 17 50.0 0.00 86.1 25.1 2.1 WNW | 299 11.0 261 289 9.4 115.1 3.8
9/28/22 - 1500 103.9 102.2 17 50.7 0.00 83.4 25.1 2.2 NNE | 28 6.7 261 381 4.9 116.3 3.8
9/28/22 - 1400 103.7 101.0 19 51.9 0.00 83.1 25.0 2.0 NE | 49 5.1 261 450 5.1 118.1 3.8
9/28/22 - 1300 102.8 98.3 21 53.2 0.00 82.9 24.9 1.6 NNE | 25 6.1 262 468 6.1 118.5 3.8
9/28/22 - 1200 99.3 94.0 24 53.7 0.00 83.2 25.0 1.4 NE | 39 4.8 262 443 2.7 111.8 3.8
9/28/22 - 1100 94.2 88.0 28 53.9 0.00 83.4 25.0 1.4 NE | 42 4.1 262 378 2.6 102.2 3.8
9/28/22 - 1000 88.1 82.2 38 56.4 0.00 83.5 25.1 0.7 NNE | 29 2.7 264 283 1.6 91.4 3.8
9/28/22 - 0900 82.4 74.4 47 56.1 0.00 83.9 25.2 0.5 ESE | 113 2.0 265 159 1.3 77.3 3.8
9/28/22 - 0800 75.1 64.0 61 54.0 0.00 84.2 25.3 0.1 SE | 145 1.0 268 -2 0.0 63.4 3.8
9/28/22 - 0700 64.8 63.7 67 53.3 0.00 84.3 25.3 0.1 SSE | 155 1.0 269 -47 0.0 58.6 3.8
9/28/22 - 0600 65.3 64.3 68 54.1 0.00 84.7 25.3 0.3 SSE | 156 2.5 269 -52 0.5 60.2 3.8
9/28/22 - 0500 66.6 64.3 67 54.3 0.00 84.8 25.3 0.1 SSE | 163 1.4 268 -53 1.0 60.8 3.8
9/28/22 - 0400 67.8 66.2 64 54.5 0.00 85.0 25.4 0.1 SSE | 163 1.0 268 -53 0.6 63.1 3.8
9/28/22 - 0300 68.4 67.2 63 55.0 0.00 85.3 25.4 0.6 SSE | 158 1.8 268 -56 0.9 63.1 3.8
9/28/22 - 0200 69.8 67.9 63 55.4 0.00 85.2 25.4 0.5 SSE | 158 1.7 268 -57 0.1 64.5 3.8
9/28/22 - 0100 72.5 69.5 58 55.8 0.00 85.3 25.5 0.4 S | 181 1.8 267 -60 0.8 66.6 3.8
9/28/22 - 0000 75.8 72.5 53 56.1 0.00 85.6 25.4 0.2 ENE | 59 1.7 266 -65 0.3 68.7 3.8
9/27/22 - 2300 76.9 74.3 43 51.4 0.00 87.7 25.5 0.6 SSE | 156 2.3 266 -64 1.7 69.9 3.8
9/27/22 - 2200 80.8 76.9 39 51.1 0.00 85.3 25.4 0.2 S | 169 2.0 264 -66 1.7 75.4 3.8
9/27/22 - 2100 85.9 80.7 32 50.8 0.00 85.1 25.4 0.5 SW | 225 3.2 264 -73 2.3 81.0 3.8
9/27/22 - 2000 89.0 85.5 29 51.0 0.00 85.0 25.4 2.3 SW | 230 6.0 264 -77 5.0 84.8 3.8
9/27/22 - 1900 95.7 87.5 24 50.3 0.00 82.1 25.4 0.4 WNW | 283 4.6 263 -72 3.3 98.3 3.8
9/27/22 - 1800 98.1 95.5 20 49.8 0.00 82.0 25.3 2.3 WNW | 286 8.1 262 30 7.1 103.6 3.8
9/27/22 - 1700 101.8 97.9 19 50.7 0.00 82.2 25.2 1.8 NW | 310 9.4 262 169 7.3 109.5 3.8
9/27/22 - 1600 106.7 101.5 18 51.7 0.00 81.5 25.1 1.9 WNW | 298 7.2 262 289 6.8 116.2 3.8
9/27/22 - 1500 105.7 103.5 12 41.0 0.00 82.6 25.1 2.4 ESE | 122 7.1 261 386 5.3 118.1 3.8
9/27/22 - 1400 104.6 102.8 12 40.9 0.00 80.6 25.0 2.7 ENE | 75 7.7 261 454 4.6 123.1 3.8
9/27/22 - 1300 103.5 101.2 16 46.8 0.00 81.7 24.9 1.8 NE | 53 5.2 261 469 3.0 123.7 3.8
9/27/22 - 1200 101.4 95.1 19 49.4 0.00 81.7 24.9 1.4 ENE | 57 4.6 261 445 3.3 115.8 3.8
9/27/22 - 1100 95.3 89.4 27 53.4 0.00 81.6 24.9 1.2 NE | 34 3.7 262 382 2.4 104.1 3.8
9/27/22 - 1000 89.4 81.3 34 54.3 0.00 81.8 25.1 0.4 NNE | 29 2.9 263 286 2.3 92.5 3.8
9/27/22 - 0900 81.4 77.5 45 55.8 0.00 82.8 25.2 0.3 N | 7 2.2 266 149 1.4 77.8 3.8
9/27/22 - 0800 77.4 63.7 61 54.3 0.00 84.5 25.2 0.1 SSE | 149 1.2 268 5 0.0 65.0 3.8
9/27/22 - 0700 64.5 63.3 68 53.4 0.00 85.6 25.3 0.7 S | 177 2.0 269 -47 1.3 59.2 3.8
9/27/22 - 0600 65.2 63.6 70 54.4 0.00 87.4 25.3 0.1 S | 188 1.1 269 -50 0.7 59.5 3.8
9/27/22 - 0500 66.6 64.9 68 55.0 0.00 80.9 25.3 0.1 SSE | 159 0.9 269 -50 0.0 59.9 3.8
9/27/22 - 0400 67.5 66.4 66 55.3 0.00 82.3 25.3 0.2 S | 169 1.6 268 -52 0.0 63.0 3.8
9/27/22 - 0300 67.7 66.5 65 55.2 0.00 84.6 25.3 0.4 SSE | 164 1.6 268 -54 1.0 63.6 3.8
9/27/22 - 0200 70.6 67.4 62 55.2 0.00 84.8 25.3 0.4 SSE | 161 1.6 267 -56 0.9 64.3 3.8
9/27/22 - 0100 72.9 70.4 58 56.0 0.00 84.6 25.4 0.1 S | 177 1.0 266 -59 0.8 66.2 3.8
9/27/22 - 0000 76.0 72.6 49 53.5 0.00 84.8 25.4 0.2 SE | 132 1.5 266 -61 0.5 68.7 3.8
9/26/22 - 2300 78.6 74.5 41 50.8 0.00 85.0 25.4 0.3 S | 181 1.9 265 -61 1.1 73.9 3.8
9/26/22 - 2200 82.8 78.4 34 49.9 0.00 84.8 25.4 1.4 SSW | 203 7.2 264 -66 5.5 80.7 3.8
9/26/22 - 2100 83.7 82.4 31 49.1 0.00 84.7 25.4 3.8 SW | 215 7.5 264 -68 5.1 81.9 3.8
9/26/22 - 2000 86.8 83.6 29 48.6 0.00 84.5 25.3 2.2 SSW | 197 5.4 263 -72 3.8 86.2 3.8
9/26/22 - 1900 92.6 86.7 24 48.5 0.00 84.0 25.3 3.2 WSW | 244 8.9 263 -68 6.6 95.7 3.8
9/26/22 - 1800 98.5 92.0 21 49.1 0.00 83.4 25.3 1.8 NW | 304 8.5 262 28 6.5 106.1 3.8
9/26/22 - 1700 101.1 97.7 20 51.6 0.00 83.1 25.1 2.4 WNW | 286 8.9 262 183 8.6 111.9 3.8
9/26/22 - 1600 104.2 100.8 19 52.4 0.00 82.7 25.0 2.3 WNW | 287 8.4 262 306 9.2 116.4 3.8
9/26/22 - 1500 104.4 100.8 19 52.8 0.00 82.0 24.9 2.0 WNW | 299 8.1 261 403 6.7 120.4 3.8
9/26/22 - 1400 103.4 99.0 19 51.1 0.00 81.7 24.9 2.1 ESE | 114 11.4 261 466 11.6 123.7 3.8
9/26/22 - 1300 100.4 94.4 20 49.7 0.00 81.6 24.8 1.6 NE | 51 6.1 261 481 5.1 123.4 3.8
9/26/22 - 1200 96.1 91.4 21 48.3 0.00 81.8 24.8 1.0 N | 349 4.2 261 454 4.2 110.7 3.8
9/26/22 - 1100 91.4 85.5 24 46.5 0.00 81.9 24.8 1.1 NE | 43 2.9 261 389 2.4 101.8 3.8
9/26/22 - 1000 85.7 79.7 29 47.4 0.00 82.0 24.9 0.8 NE | 51 3.4 262 293 2.3 91.9 3.8
9/26/22 - 0900 80.0 72.7 35 47.0 0.00 82.6 25.1 0.4 ENE | 63 2.4 263 170 1.3 78.1 3.8
9/26/22 - 0800 73.0 63.0 46 45.3 0.00 82.7 25.1 0.0 NNE | 20 1.1 266 7 0.0 62.9 3.8
9/26/22 - 0700 64.0 62.6 51 44.4 0.00 82.8 25.1 0.2 SSE | 162 1.4 266 -45 0.0 57.5 3.8
9/26/22 - 0600 64.3 62.8 50 44.6 0.00 83.3 25.2 0.1 SSE | 155 0.9 266 -47 0.0 58.8 3.8
9/26/22 - 0500 64.6 63.5 48 43.8 0.00 83.2 25.2 0.2 S | 183 1.9 266 -47 0.0 59.5 3.8
9/26/22 - 0400 66.6 64.3 45 43.3 0.00 83.5 25.2 0.1 S | 173 1.3 265 -49 0.8 60.9 3.8
9/26/22 - 0300 66.9 66.1 44 43.9 0.00 83.6 25.3 0.2 SSE | 153 1.3 265 -50 0.9 61.4 3.8
9/26/22 - 0200 68.5 66.5 46 45.8 0.00 83.7 25.3 0.2 SSE | 155 1.2 264 -52 0.0 62.0 3.8
9/26/22 - 0100 69.9 68.2 35 40.5 0.00 84.0 25.3 0.1 SSE | 160 1.1 264 -53 0.0 63.4 3.8
9/26/22 - 0000 72.1 69.8 29 37.2 0.00 83.9 25.3 0.2 SSE | 163 1.2 263 -57 0.0 66.0 3.8
9/25/22 - 2300 77.3 72.1 26 37.0 0.00 84.0 25.3 0.3 SSE | 163 2.2 263 -62 1.8 74.5 3.8
9/25/22 - 2200 79.1 77.2 22 37.2 0.00 84.0 25.3 2.6 SSW | 205 7.3 262 -71 5.0 77.9 3.8
9/25/22 - 2100 80.5 78.9 20 34.6 0.00 83.8 25.3 4.2 SSW | 212 8.4 262 -74 6.4 79.2 3.8
9/25/22 - 2000 83.8 80.3 15 29.4 0.00 83.6 25.3 3.4 SW | 218 8.2 262 -79 5.8 84.1 3.8
9/25/22 - 1900 89.6 83.7 13 30.5 0.00 83.2 25.3 4.1 SW | 229 8.2 261 -69 5.7 93.8 3.8
9/25/22 - 1800 94.1 89.7 13 34.4 0.00 82.6 25.2 1.6 WNW | 301 7.2 261 38 6.0 100.6 3.8
9/25/22 - 1700 97.3 94.0 14 38.0 0.00 82.1 25.1 1.8 NW | 308 8.7 261 185 7.3 106.7 3.8
9/25/22 - 1600 100.7 95.8 17 46.5 0.00 81.6 25.0 2.9 WNW | 284 10.0 261 314 7.8 111.0 3.8
9/25/22 - 1500 101.9 98.5 20 51.5 0.00 80.9 24.9 3.1 W | 270 9.7 261 412 7.9 118.3 3.8
9/25/22 - 1400 101.0 95.9 18 48.4 0.00 82.1 24.8 2.2 WSW | 256 7.2 261 472 5.9 123.5 3.8
9/25/22 - 1300 99.3 93.3 20 48.5 0.00 82.0 24.7 2.3 WSW | 255 7.8 261 492 6.3 123.9 3.8
9/25/22 - 1200 95.0 89.3 18 43.6 0.00 79.8 24.8 1.3 NE | 49 4.1 261 461 4.0 113.4 3.8
9/25/22 - 1100 89.7 83.3 22 43.3 0.00 81.3 24.8 1.0 NNE | 16 4.1 261 389 2.3 99.7 3.8
9/25/22 - 1000 84.2 76.5 29 45.4 0.00 81.6 24.9 0.9 NNE | 26 3.2 261 300 2.6 90.9 3.8
9/25/22 - 0900 76.7 72.8 34 43.9 0.00 81.8 25.0 1.6 W | 268 4.1 263 162 3.4 77.3 3.8
9/25/22 - 0800 73.3 62.5 44 44.2 0.00 81.9 25.1 0.1 WSW | 242 1.6 265 14 1.0 62.9 3.8
9/25/22 - 0700 62.6 61.6 48 42.2 0.00 82.3 25.1 0.3 SE | 145 1.9 266 -45 1.0 57.4 3.8
9/25/22 - 0600 63.5 62.3 44 40.9 0.00 82.3 25.1 0.2 SSE | 160 1.2 266 -48 0.0 58.0 3.8
9/25/22 - 0500 65.2 63.3 43 41.3 0.00 82.7 25.1 0.0 S | 173 1.3 265 -47 1.4 59.8 3.8
9/25/22 - 0400 66.1 64.8 43 42.3 0.00 82.7 25.2 0.1 SSE | 154 0.8 265 -47 0.0 61.1 3.8
9/25/22 - 0300 66.8 66.0 42 42.3 0.00 83.0 25.2 0.1 SSE | 151 1.0 266 -48 0.0 61.3 3.8
9/25/22 - 0200 68.0 66.6 36 39.7 0.00 83.1 25.2 0.4 SSE | 151 2.0 264 -52 0.0 63.0 3.8
9/25/22 - 0100 70.3 67.7 35 40.4 0.00 83.0 25.2 0.1 SSE | 156 1.2 264 -52 0.0 64.1 3.8
9/25/22 - 0000 73.5 69.8 32 39.7 0.00 83.3 25.2 0.5 SSW | 192 3.0 264 -55 2.3 68.4 3.8
9/24/22 - 2300 76.9 71.8 27 37.6 0.00 83.4 25.2 0.2 WSW | 256 2.7 263 -60 2.2 74.5 3.8
9/24/22 - 2200 77.8 76.5 25 39.0 0.00 82.9 25.2 3.5 SW | 214 7.0 262 -67 5.4 76.7 3.8
9/24/22 - 2100 79.5 77.7 22 36.1 0.00 83.1 25.2 2.2 SW | 214 6.9 262 -69 4.9 77.6 3.8
9/24/22 - 2000 82.5 79.4 16 30.4 0.00 82.5 25.2 2.9 SW | 222 6.8 262 -74 5.4 83.2 3.8
9/24/22 - 1900 88.9 82.4 17 35.3 0.00 82.3 25.2 3.3 WSW | 248 7.3 261 -65 5.3 93.0 3.8
9/24/22 - 1800 93.1 88.7 18 41.6 0.00 82.1 25.1 1.7 WNW | 299 6.6 261 48 6.3 99.2 3.8
9/24/22 - 1700 96.1 92.7 20 46.8 0.00 81.3 25.1 1.8 WNW | 302 7.9 262 193 7.2 105.1 3.8
9/24/22 - 1600 98.8 95.0 21 50.4 0.00 81.0 24.9 2.7 WNW | 282 9.8 262 318 7.5 112.2 3.8
9/24/22 - 1500 99.5 96.6 17 46.6 0.00 80.5 24.8 1.8 NE | 48 5.2 261 412 4.3 114.2 3.8
9/24/22 - 1400 99.3 96.4 19 48.6 0.00 80.2 24.8 1.8 NE | 36 5.6 261 472 4.5 122.1 3.8
9/24/22 - 1300 98.5 92.2 21 47.7 0.00 79.9 24.7 1.6 E | 83 4.9 261 493 4.6 120.3 3.8
9/24/22 - 1200 93.9 89.9 17 41.2 0.00 80.1 24.7 1.0 NNE | 30 4.6 261 465 2.9 110.6 3.8
9/24/22 - 1100 90.4 84.0 20 40.8 0.00 80.1 24.7 0.9 NE | 35 3.6 261 400 3.0 98.3 3.8
9/24/22 - 1000 84.1 78.0 29 45.0 0.00 80.1 24.8 1.0 NNE | 16 3.6 262 304 2.2 88.7 3.8
9/24/22 - 0900 78.0 71.6 35 46.2 0.00 80.6 24.9 0.6 N | 1 2.6 264 180 1.6 76.5 3.8
9/24/22 - 0800 71.6 60.6 54 48.5 0.00 80.8 24.9 0.1 WNW | 292 3.1 267 27 1.7 62.9 3.8
9/24/22 - 0700 61.1 60.3 63 48.1 0.00 81.0 25.0 0.2 SSE | 151 1.3 268 -42 0.0 56.1 3.8
9/24/22 - 0600 62.0 61.0 60 47.3 0.00 81.3 25.0 0.2 SSE | 159 1.8 268 -45 0.9 57.2 3.8
9/24/22 - 0500 62.8 61.4 56 46.3 0.00 81.5 25.1 0.0 S | 182 0.8 267 -46 0.0 57.1 3.8
9/24/22 - 0400 63.1 62.2 57 47.3 0.00 81.6 25.1 0.2 SSE | 166 1.2 267 -47 0.0 57.6 3.8
9/24/22 - 0300 64.4 62.5 55 46.8 0.00 81.9 25.1 0.2 SSE | 166 1.6 266 -52 0.0 57.8 3.8
9/24/22 - 0200 66.1 64.3 54 47.8 0.00 81.7 25.1 0.1 SSE | 157 1.0 266 -54 0.0 59.5 3.8
9/24/22 - 0100 66.9 65.7 51 47.6 0.00 81.9 25.1 0.3 SSE | 155 1.4 266 -54 1.1 61.4 3.8
9/24/22 - 0000 69.4 66.5 47 47.1 0.00 82.1 25.1 0.2 SSE | 158 1.6 266 -55 0.3 63.9 3.8
9/23/22 - 2300 71.7 69.2 45 47.8 0.00 82.0 25.1 0.4 S | 172 1.7 266 -57 2.0 66.0 3.8
9/23/22 - 2200 76.1 71.2 41 47.6 0.00 81.9 25.1 0.1 S | 177 1.3 265 -61 1.6 70.6 3.8
9/23/22 - 2100 79.7 75.8 35 47.4 0.00 81.8 25.1 0.8 SSW | 201 2.8 264 -67 2.0 75.7 3.8
9/23/22 - 2000 83.7 79.5 31 47.7 0.00 81.7 25.1 1.1 W | 261 4.3 264 -72 2.8 82.9 3.8
9/23/22 - 1900 89.5 83.7 17 33.8 0.00 81.1 25.1 1.7 SW | 228 4.9 262 -68 4.5 93.3 3.8
9/23/22 - 1800 92.2 89.4 8 20.5 0.00 80.5 25.0 3.3 S | 180 7.2 261 51 5.6 100.0 3.8
9/23/22 - 1700 93.0 91.8 10 28.3 0.00 80.3 24.9 3.7 S | 189 8.7 261 202 7.4 103.4 3.8
9/23/22 - 1600 94.9 92.8 15 38.6 0.00 79.8 24.8 3.8 SSE | 152 9.9 261 333 7.1 105.7 3.8
9/23/22 - 1500 94.1 92.2 19 44.7 0.00 79.3 24.8 4.0 SE | 135 10.1 261 436 6.2 112.3 3.8
9/23/22 - 1400 95.8 93.3 15 39.4 0.00 79.3 24.7 2.8 E | 91 7.4 261 490 5.6 114.1 3.8
9/23/22 - 1300 94.1 90.9 16 39.3 0.00 78.9 24.6 2.7 ENE | 65 9.4 261 504 5.5 115.7 3.8
9/23/22 - 1200 91.7 86.3 18 40.7 0.00 79.0 24.6 1.6 NE | 42 6.2 261 472 3.6 110.9 3.8
9/23/22 - 1100 86.7 80.4 27 45.6 0.00 79.3 24.6 1.2 NE | 36 4.3 262 407 2.4 96.8 3.8
9/23/22 - 1000 80.4 72.8 35 47.2 0.00 79.4 24.7 0.5 N | 5 3.4 264 309 1.9 84.4 3.8
9/23/22 - 0900 73.9 65.7 46 48.2 0.00 79.7 24.8 0.4 NNW | 338 3.1 265 178 2.1 69.3 3.8
9/23/22 - 0800 65.8 54.0 76 51.1 0.00 80.1 24.9 0.1 SSE | 157 1.0 271 53 0.6 51.7 3.8
9/23/22 - 0700 54.4 53.4 83 48.9 0.00 80.8 24.9 0.1 SSE | 168 1.0 272 -32 0.0 45.8 3.8
9/23/22 - 0600 54.8 53.8 78 47.4 0.00 80.7 25.0 0.0 SSE | 157 0.7 270 -56 0.0 46.6 3.8
9/23/22 - 0500 55.8 54.7 73 46.9 0.00 80.8 25.0 0.1 S | 171 0.8 270 -58 0.2 47.3 3.8
9/23/22 - 0400 57.1 55.7 70 47.0 0.00 81.2 25.0 0.1 SSE | 168 1.2 270 -59 0.9 48.2 3.8
9/23/22 - 0300 58.7 56.9 64 45.8 0.00 81.5 25.1 0.0 S | 181 0.7 269 -60 0.0 49.6 3.8
9/23/22 - 0200 59.8 58.4 59 45.0 0.00 81.5 25.1 0.1 SSE | 167 1.0 268 -60 0.0 51.3 3.8
9/23/22 - 0100 61.1 59.5 55 44.2 0.00 81.8 25.1 0.2 SSE | 160 1.0 267 -62 0.0 53.8 3.8
9/23/22 - 0000 62.9 60.8 53 44.5 0.00 81.7 25.1 0.2 S | 172 1.6 267 -66 1.1 54.7 3.8
9/22/22 - 2300 65.1 62.9 50 45.4 0.00 81.8 25.1 0.2 S | 172 1.7 266 -71 1.4 58.0 3.8
9/22/22 - 2200 71.8 65.0 45 46.0 0.00 81.6 25.2 0.4 S | 173 2.4 266 -78 1.5 66.2 3.8
9/22/22 - 2100 73.9 71.7 37 45.1 0.00 81.9 25.1 1.9 SSW | 208 4.6 264 -86 3.6 67.7 3.8
9/22/22 - 2000 78.5 73.8 33 45.1 0.00 81.4 25.1 2.5 SW | 219 5.7 264 -92 4.4 76.2 3.8
9/22/22 - 1900 85.3 78.4 27 44.4 0.00 81.1 25.1 2.0 W | 270 7.7 264 -81 5.9 88.5 3.8
9/22/22 - 1800 88.7 85.0 24 46.0 0.00 77.6 25.1 2.4 WNW | 284 7.5 263 47 6.9 94.5 3.8
9/22/22 - 1700 91.0 87.5 15 34.4 0.00 78.3 25.0 2.5 SSE | 157 6.6 262 195 5.7 97.1 3.8
9/22/22 - 1600 93.1 89.7 9 24.4 0.00 76.4 24.8 3.1 ESE | 119 8.6 261 327 5.8 104.4 3.8
9/22/22 - 1500 93.0 90.5 11 30.5 0.00 79.2 24.8 1.9 ENE | 74 5.1 260 425 4.1 109.5 3.8
9/22/22 - 1400 91.8 89.0 10 27.2 0.00 79.0 24.7 1.4 NNE | 28 4.2 260 490 4.9 114.3 3.8
9/22/22 - 1300 90.3 85.1 15 33.9 0.00 79.3 24.7 1.6 ENE | 68 8.0 261 513 7.7 117.6 3.8
9/22/22 - 1200 86.8 82.3 19 37.8 0.00 78.9 24.6 1.5 E | 93 5.7 261 484 4.6 108.0 3.8
9/22/22 - 1100 83.2 77.9 27 44.2 0.00 79.2 24.7 1.1 NE | 41 3.9 263 412 2.9 93.6 3.8
9/22/22 - 1000 78.5 73.6 38 48.2 0.00 79.4 24.8 0.8 NE | 50 2.8 264 310 1.8 81.3 3.8
9/22/22 - 0900 73.4 62.7 53 51.0 0.00 81.6 24.9 0.1 ENE | 74 1.7 266 194 1.1 65.7 3.8
9/22/22 - 0800 62.9 52.2 81 50.4 0.00 80.9 24.9 0.1 SE | 126 0.9 306 56 0.0 50.0 3.8
9/22/22 - 0700 52.6 51.7 88 48.6 0.00 80.0 25.0 0.2 S | 173 1.8 333 -18 1.3 45.0 3.8
9/22/22 - 0600 53.4 52.2 87 49.0 0.00 80.7 25.0 0.1 SSE | 166 1.1 317 -23 0.6 45.6 3.8
9/22/22 - 0500 54.2 53.4 85 49.4 0.00 80.9 25.1 0.2 SSE | 160 1.4 291 -29 0.6 45.6 3.8
9/22/22 - 0400 54.8 54.0 83 49.3 0.00 81.3 25.1 0.2 SSE | 167 1.2 274 -43 0.0 46.0 3.8
9/22/22 - 0300 55.6 54.2 82 49.4 0.00 81.3 25.1 0.3 SSE | 158 2.1 275 -56 1.5 48.5 3.8
9/22/22 - 0200 58.1 55.5 80 50.9 0.00 81.6 25.1 0.3 S | 182 1.4 273 -61 0.9 50.9 3.8
9/22/22 - 0100 60.6 57.9 76 51.7 0.00 81.8 25.1 0.4 S | 182 2.8 272 -67 1.3 52.9 3.8
9/22/22 - 0000 63.6 59.5 71 51.6 0.00 81.8 25.1 0.2 SSW | 196 2.3 270 -68 1.4 58.0 3.8
9/21/22 - 2300 64.3 63.3 66 52.4 0.00 81.9 25.2 1.7 SW | 216 6.5 269 -76 4.5 60.3 3.8
9/21/22 - 2200 65.7 64.0 62 51.7 0.00 81.8 25.2 2.7 SSW | 213 6.3 268 -77 4.3 61.9 3.8
9/21/22 - 2100 67.8 65.4 55 50.0 0.00 81.8 25.2 4.0 SW | 230 10.1 267 -82 6.9 64.6 3.8
9/21/22 - 2000 71.3 67.6 46 47.3 0.00 81.6 25.2 4.5 WSW | 251 12.0 266 -87 8.7 69.6 3.8
9/21/22 - 1900 76.6 71.2 39 47.1 0.00 81.2 25.2 4.4 W | 263 9.9 266 -70 8.3 80.2 3.8
9/21/22 - 1800 78.4 76.5 33 46.5 0.00 83.7 25.1 5.1 WSW | 247 10.3 264 65 8.7 85.7 3.8
9/21/22 - 1700 80.5 77.7 31 46.2 0.00 83.7 25.1 6.4 WSW | 241 11.4 264 222 8.4 91.1 3.8
9/21/22 - 1600 82.8 79.5 31 47.5 0.00 84.0 25.0 5.8 WSW | 246 13.0 264 353 9.7 98.7 3.8
9/21/22 - 1500 83.9 81.5 25 43.8 0.00 83.7 24.9 4.0 WSW | 249 9.7 263 448 8.2 103.3 3.8
9/21/22 - 1400 83.3 80.0 25 42.0 0.00 83.5 24.9 3.6 SW | 224 9.3 263 511 7.6 109.3 3.8
9/21/22 - 1300 82.4 78.5 25 41.3 0.00 83.6 24.8 2.4 W | 261 7.8 263 525 6.2 110.6 3.8
9/21/22 - 1200 78.4 75.9 27 40.3 0.00 83.4 24.8 2.8 WSW | 242 8.3 263 496 6.7 98.5 3.8
9/21/22 - 1100 76.8 71.8 43 50.0 0.00 83.3 24.8 1.6 WNW | 286 6.2 264 422 5.0 84.7 3.8
9/21/22 - 1000 71.9 65.8 58 53.7 0.00 83.3 24.9 1.3 WSW | 243 4.8 266 316 3.8 73.9 3.8
9/21/22 - 0900 66.1 60.4 73 54.8 0.00 83.3 25.0 1.7 WSW | 248 5.9 268 185 4.5 65.1 3.8
9/21/22 - 0800 60.8 56.8 86 54.3 0.00 80.5 25.1 1.2 SSW | 205 4.5 309 53 3.2 56.2 3.8
9/21/22 - 0700 57.2 55.6 88 53.2 0.00 79.4 25.1 1.9 WSW | 251 7.1 325 -21 4.9 55.0 3.8
9/21/22 - 0600 57.6 55.7 88 53.3 0.00 78.7 25.1 0.8 SSW | 213 4.7 342 -26 3.5 52.0 3.8
9/21/22 - 0500 58.7 56.3 87 53.5 0.00 78.1 25.2 0.6 SSW | 213 5.2 316 -31 3.8 55.4 3.8
9/21/22 - 0400 59.0 57.5 86 54.2 0.00 80.8 25.2 1.2 SW | 224 5.0 278 -43 3.5 54.0 3.8
9/21/22 - 0300 60.6 58.6 82 54.0 0.00 81.8 25.2 0.9 SW | 216 3.8 264 -64 2.9 58.4 3.8
9/21/22 - 0200 61.1 60.2 78 53.9 0.00 81.9 25.2 2.7 SSW | 212 4.9 272 -70 3.8 58.6 3.8
9/21/22 - 0100 62.0 60.8 74 53.1 0.00 82.2 25.2 2.3 SSW | 204 5.4 271 -70 3.5 59.8 3.8
9/21/22 - 0000 63.5 61.9 68 51.7 0.00 82.2 25.3 2.8 SW | 218 6.4 270 -71 3.8 60.9 3.8
9/20/22 - 2300 64.8 63.3 64 51.4 0.00 82.5 25.3 3.6 SW | 225 8.4 268 -72 5.7 63.8 3.8
9/20/22 - 2200 66.9 64.7 63 52.6 0.00 82.2 25.3 3.1 SW | 236 6.6 268 -73 5.2 65.8 3.8
9/20/22 - 2100 68.5 66.6 62 54.0 0.00 82.3 25.3 4.5 SW | 236 8.3 268 -74 6.3 67.2 3.8
9/20/22 - 2000 72.7 68.4 62 56.6 0.00 82.0 25.3 4.4 WSW | 258 9.7 268 -75 7.0 71.6 3.8
9/20/22 - 1900 77.8 72.5 50 55.1 0.00 81.7 25.3 4.3 W | 269 11.4 267 -53 8.9 79.7 3.8
9/20/22 - 1800 79.7 77.4 45 55.4 0.00 81.3 25.2 5.4 WSW | 250 9.9 266 92 8.0 87.1 3.8
9/20/22 - 1700 83.1 78.5 42 55.9 0.00 81.2 25.2 4.4 WSW | 240 10.7 266 247 8.1 93.1 3.8
9/20/22 - 1600 83.4 79.5 41 55.3 0.00 81.0 25.1 4.1 WSW | 249 11.0 266 404 9.0 95.9 3.8
9/20/22 - 1500 81.2 78.1 45 56.0 0.00 80.5 25.1 2.6 WSW | 241 8.7 266 195 6.8 95.5 3.8
9/20/22 - 1400 81.9 77.8 45 56.3 0.00 80.4 25.1 3.1 SW | 236 8.6 266 290 7.1 100.7 3.8
9/20/22 - 1300 80.5 75.5 49 56.9 0.00 77.0 25.0 1.9 SSW | 196 6.2 266 378 5.3 103.3 3.8
9/20/22 - 1200 78.4 74.3 52 57.3 0.00 80.4 25.1 2.1 SSE | 158 6.6 267 385 5.2 95.1 3.8
9/20/22 - 1100 76.9 72.6 55 57.4 0.00 80.4 25.0 1.5 NW | 321 6.6 266 392 5.0 89.2 3.8
9/20/22 - 1000 72.6 67.4 63 56.9 0.00 80.8 25.0 1.2 NE | 41 4.9 267 293 3.3 85.5 3.8
9/20/22 - 0900 68.7 64.0 70 56.3 0.00 80.8 25.1 0.7 ENE | 69 2.8 269 113 2.7 68.9 3.8
9/20/22 - 0800 65.2 61.1 77 56.2 0.00 81.0 25.1 0.4 SE | 124 1.8 272 26 1.0 65.8 3.8
9/20/22 - 0700 61.2 59.0 88 56.6 0.00 81.4 25.2 0.0 SE | 133 1.1 273 -2 0.0 62.1 3.8
9/20/22 - 0600 59.2 57.3 90 55.3 0.00 80.8 25.2 0.2 SSW | 201 1.5 290 -7 0.1 58.6 3.8
9/20/22 - 0500 58.7 57.7 89 55.1 0.00 79.6 25.2 0.2 S | 191 1.5 309 -20 0.0 52.1 3.8
9/20/22 - 0400 59.6 58.0 88 55.3 0.00 78.9 25.3 0.3 SSE | 165 1.6 293 -25 0.2 52.8 3.8
9/20/22 - 0300 59.7 58.7 88 55.7 0.00 80.0 25.3 0.2 SSE | 159 1.2 272 -31 0.1 53.7 3.8
9/20/22 - 0200 60.9 59.4 85 55.8 0.00 82.8 25.3 0.3 S | 182 2.3 255 -46 0.6 56.5 3.8
9/20/22 - 0100 63.0 60.7 80 56.0 0.00 85.1 25.3 0.7 S | 185 2.9 274 -59 1.7 59.9 3.8
9/20/22 - 0000 64.3 62.7 77 56.2 0.00 85.7 25.3 1.6 SSW | 197 3.6 272 -65 2.0 61.2 3.8
9/19/22 - 2300 65.5 64.1 74 56.4 0.00 84.5 25.4 2.1 SSW | 209 5.0 270 -69 3.3 63.4 3.8
9/19/22 - 2200 66.9 65.3 71 56.7 0.00 83.6 25.3 3.3 SW | 231 7.7 270 -72 5.6 66.2 3.8
9/19/22 - 2100 69.4 66.7 65 55.7 0.00 86.1 25.4 3.5 SW | 231 9.1 269 -75 5.8 68.9 3.8
9/19/22 - 2000 71.9 69.1 57 54.4 0.00 85.1 25.3 3.5 WSW | 240 7.4 268 -79 6.5 72.6 3.8
9/19/22 - 1900 78.3 71.8 48 54.0 0.00 83.9 25.3 3.9 W | 268 9.7 267 -56 8.6 81.3 3.8
9/19/22 - 1800 80.0 77.7 40 52.7 0.00 83.1 25.3 3.7 WSW | 249 9.4 266 75 6.8 85.3 3.8
9/19/22 - 1700 81.7 78.9 40 53.5 0.00 82.1 25.2 4.2 WSW | 251 9.3 266 244 8.6 91.1 3.8
9/19/22 - 1600 81.4 79.3 39 53.4 0.00 81.4 25.1 4.7 SW | 230 11.0 266 380 8.0 94.0 3.8
9/19/22 - 1500 81.4 78.9 44 56.0 0.00 80.9 25.1 4.0 S | 173 9.6 266 474 6.6 100.5 3.8
9/19/22 - 1400 81.5 79.0 40 53.8 0.00 80.4 25.1 2.5 SSE | 165 7.7 266 488 6.3 108.6 3.8
9/19/22 - 1300 80.7 76.5 41 52.9 0.00 80.6 25.0 2.4 SW | 218 6.8 265 530 5.6 105.8 3.8
9/19/22 - 1200 78.0 72.5 45 52.4 0.00 80.4 25.0 1.6 NE | 41 6.2 266 497 4.1 96.0 3.8
9/19/22 - 1100 74.5 68.8 49 52.1 0.00 80.4 25.0 1.5 NW | 320 4.7 266 424 5.1 84.1 3.8
9/19/22 - 1000 69.7 66.1 60 53.6 0.00 80.4 25.1 1.2 SW | 228 5.0 266 315 4.5 73.5 3.8
9/19/22 - 0900 67.3 62.4 68 54.2 0.00 80.8 25.2 0.3 ENE | 60 2.1 268 202 2.2 64.9 3.8
9/19/22 - 0800 62.5 54.1 89 54.4 0.00 81.1 25.2 0.1 S | 175 1.2 310 50 0.0 54.3 3.8
9/19/22 - 0700 54.8 53.7 90 51.5 0.00 81.4 25.2 0.2 S | 177 1.4 349 -16 0.0 47.8 3.8
9/19/22 - 0600 55.2 54.4 90 51.8 0.00 81.8 25.3 0.0 SSE | 149 1.0 335 -22 0.0 48.3 3.8
9/19/22 - 0500 55.6 54.5 89 51.8 0.00 82.0 25.3 0.1 S | 174 1.2 307 -26 0.0 49.4 3.8
9/19/22 - 0400 56.8 54.6 87 52.2 0.00 82.2 25.3 0.3 SSE | 161 1.6 267 -30 0.0 49.7 3.8
9/19/22 - 0300 57.4 56.4 86 52.6 0.00 82.1 25.3 0.1 S | 175 1.2 244 -39 0.0 50.0 3.8
9/19/22 - 0200 58.4 56.7 83 52.5 0.00 80.4 25.4 0.3 S | 181 2.1 250 -54 0.0 51.4 3.8
9/19/22 - 0100 61.8 58.1 78 53.1 0.00 79.7 25.4 0.2 SSW | 199 3.8 274 -60 1.7 57.1 3.8
9/19/22 - 0000 62.0 61.3 75 53.7 0.00 80.2 25.4 1.4 SSW | 203 3.7 271 -63 2.6 57.1 3.8
9/18/22 - 2300 63.5 61.1 74 53.9 0.00 84.3 25.5 0.6 S | 186 3.6 272 -63 1.7 59.6 3.8
9/18/22 - 2200 65.5 63.1 69 54.0 0.00 85.3 25.5 1.3 SW | 223 3.8 270 -66 2.5 62.9 3.8
9/18/22 - 2100 66.1 65.1 64 53.1 0.00 86.7 25.5 1.7 SW | 218 4.7 269 -70 4.3 63.7 3.8
9/18/22 - 2000 68.3 65.8 59 52.2 0.00 85.8 25.5 2.1 SSW | 200 4.0 268 -75 3.7 67.6 3.8
9/18/22 - 1900 73.7 68.2 52 52.4 0.00 84.7 25.5 2.9 S | 186 6.9 268 -55 4.2 77.4 3.8
9/18/22 - 1800 75.9 73.5 44 51.6 0.00 83.7 25.5 2.2 S | 177 6.0 266 74 4.8 80.5 3.8
9/18/22 - 1700 75.7 73.7 47 52.9 0.00 82.7 25.4 3.1 SSE | 155 8.9 266 229 6.5 84.6 3.8
9/18/22 - 1600 76.2 74.1 48 53.8 0.00 79.7 25.3 4.6 SSE | 167 10.8 266 367 8.5 89.4 3.8
9/18/22 - 1500 76.0 74.4 48 54.3 0.00 78.5 25.3 4.6 S | 171 11.2 266 473 9.2 94.9 3.8
9/18/22 - 1400 75.8 73.4 49 54.4 0.00 78.1 25.3 4.6 SSE | 162 10.5 266 421 7.7 96.5 3.8
9/18/22 - 1300 76.6 73.4 46 52.8 0.00 79.1 25.3 2.9 S | 175 7.1 266 342 5.7 110.3 3.8
9/18/22 - 1200 75.8 72.7 48 53.1 0.00 81.4 25.3 3.3 SE | 133 9.4 266 453 6.7 100.9 3.8
9/18/22 - 1100 73.2 69.6 56 54.8 0.00 81.5 25.2 4.0 ESE | 123 10.6 266 403 8.3 90.4 3.8
9/18/22 - 1000 71.8 68.4 60 55.3 0.00 81.7 25.3 2.4 ESE | 112 9.1 266 260 6.2 85.1 3.8
9/18/22 - 0900 68.4 65.6 67 55.6 0.00 81.8 25.3 2.6 E | 98 7.6 268 118 6.1 76.8 3.8
9/18/22 - 0800 65.9 62.8 74 56.1 0.00 81.8 25.4 1.4 E | 94 6.1 270 12 3.3 68.5 3.8
9/18/22 - 0700 64.1 62.7 76 55.7 0.00 82.1 25.4 0.5 E | 89 2.6 272 -38 1.6 63.6 3.8
9/18/22 - 0600 64.3 63.7 76 56.1 0.00 82.2 25.4 0.8 ESE | 112 3.8 272 -28 2.4 64.6 3.8
9/18/22 - 0500 65.1 64.1 76 56.9 0.00 82.2 25.5 1.4 E | 82 4.9 272 -32 2.6 66.8 3.8
9/18/22 - 0400 65.3 64.8 76 57.2 0.00 82.6 25.5 0.7 E | 100 4.1 272 -20 2.8 67.3 3.8
9/18/22 - 0300 65.1 64.6 77 57.5 0.00 82.6 25.5 0.5 ESE | 102 2.7 272 -15 1.2 67.1 3.8
9/18/22 - 0200 65.0 62.5 77 56.6 0.00 83.0 25.5 0.3 ENE | 76 2.9 271 -11 1.8 65.3 3.8
9/18/22 - 0100 62.7 60.1 84 56.2 0.00 82.9 25.5 0.1 SSE | 161 0.8 272 -13 0.0 62.4 3.8
9/18/22 - 0000 62.1 60.5 83 55.8 0.00 83.2 25.5 0.2 S | 169 1.2 262 -51 0.0 54.6 3.8
9/17/22 - 2300 63.6 61.8 79 56.0 0.00 83.1 25.5 0.4 S | 179 1.8 272 -60 0.1 56.2 3.8
9/17/22 - 2200 65.9 63.5 74 56.3 0.00 83.4 25.6 0.7 SSW | 200 2.9 271 -62 1.4 60.5 3.8
9/17/22 - 2100 68.0 65.8 70 56.8 0.00 83.2 25.6 1.1 SSW | 204 2.9 270 -67 1.7 64.8 3.8
9/17/22 - 2000 70.4 67.6 66 56.9 0.00 82.9 25.6 1.7 SSW | 194 4.1 269 -71 3.1 69.4 3.8
9/17/22 - 1900 74.9 70.2 57 56.3 0.00 83.0 25.6 2.5 S | 180 7.4 268 -47 6.0 77.4 3.8
9/17/22 - 1800 76.7 74.4 50 55.9 0.00 82.9 25.6 2.9 S | 170 6.8 267 73 5.4 83.1 3.8
9/17/22 - 1700 77.7 75.5 49 56.3 0.00 82.6 25.5 3.5 S | 178 9.3 266 235 7.1 87.3 3.8
9/17/22 - 1600 78.7 76.6 48 56.2 0.00 82.3 25.5 2.8 SSE | 163 6.5 266 364 5.2 91.1 3.8
9/17/22 - 1500 77.5 73.8 50 56.1 0.00 82.4 25.4 2.4 E | 90 7.2 266 442 4.9 92.5 3.8
9/17/22 - 1400 74.9 72.3 55 56.3 0.00 82.2 25.5 2.3 E | 88 7.1 267 298 4.4 94.7 3.8
9/17/22 - 1300 74.4 69.6 63 57.6 0.00 82.4 25.4 2.5 ESE | 123 7.3 267 284 4.4 96.6 3.8
9/17/22 - 1200 71.6 69.1 62 56.6 0.00 81.6 25.5 2.5 ESE | 113 8.9 268 105 5.2 86.9 3.8
9/17/22 - 1100 72.9 68.6 62 57.0 0.00 82.6 25.5 2.1 ENE | 78 7.2 268 301 3.4 89.8 3.8
9/17/22 - 1000 68.8 66.7 69 57.3 0.00 82.6 25.5 0.8 NE | 52 2.8 269 115 2.7 80.4 3.8
9/17/22 - 0900 66.8 61.6 79 57.7 0.00 82.7 25.6 0.3 E | 80 3.1 270 82 1.4 76.1 3.8
9/17/22 - 0800 61.7 57.2 89 55.8 0.00 83.2 25.6 0.5 SSE | 159 1.8 280 25 0.0 66.1 3.8
9/17/22 - 0700 58.0 57.0 89 54.3 0.00 83.4 25.7 0.1 S | 178 1.1 300 -17 0.0 51.7 3.8
9/17/22 - 0600 58.6 57.3 88 54.5 0.00 83.9 25.7 0.2 SSE | 155 1.3 272 -25 0.0 51.2 3.8
9/17/22 - 0500 59.1 58.1 86 54.6 0.00 83.8 25.7 0.1 SSE | 150 0.9 251 -30 0.0 52.3 3.8
9/17/22 - 0400 60.2 59.0 84 54.9 0.00 84.1 25.7 0.1 SSE | 166 0.9 249 -40 0.0 52.7 3.8
9/17/22 - 0300 61.1 60.0 82 55.0 0.00 84.1 25.8 0.1 S | 170 1.0 272 -50 0.0 54.2 3.8
9/17/22 - 0200 62.0 61.0 78 54.6 0.00 84.2 25.8 0.1 SSE | 163 0.8 273 -54 0.0 55.0 3.8
9/17/22 - 0100 63.6 61.4 74 53.8 0.00 83.6 25.8 0.1 SSE | 163 0.9 271 -57 0.0 56.8 3.8
9/17/22 - 0000 65.1 63.1 70 54.0 0.00 84.6 25.8 0.2 S | 174 1.2 270 -59 0.0 59.0 3.8
9/16/22 - 2300 67.1 64.5 65 53.6 0.00 85.0 25.8 0.2 S | 174 1.2 269 -61 0.6 62.4 3.8
9/16/22 - 2200 69.3 67.1 60 53.8 0.00 84.9 25.8 0.4 SSE | 168 2.3 268 -66 1.3 64.2 3.8
9/16/22 - 2100 71.7 69.2 54 53.3 0.00 84.8 25.9 1.2 SSW | 206 3.2 268 -70 2.1 66.9 3.8
9/16/22 - 2000 74.8 71.5 49 52.9 0.00 84.7 25.9 1.1 W | 264 5.4 267 -77 4.1 73.8 3.8
9/16/22 - 1900 79.5 74.6 44 53.3 0.00 84.5 25.8 1.5 WNW | 297 6.6 266 -54 5.4 82.1 3.8
9/16/22 - 1800 82.7 78.7 41 55.0 0.00 84.2 25.8 2.4 WNW | 283 9.3 266 78 6.5 88.7 3.8
9/16/22 - 1700 82.0 80.2 45 57.8 0.00 83.6 25.8 4.0 SW | 226 10.3 266 232 7.8 93.0 3.8
9/16/22 - 1600 82.8 80.1 46 58.8 0.00 83.2 25.7 4.1 S | 175 8.5 266 368 7.9 99.4 3.8
9/16/22 - 1500 82.8 81.1 44 58.0 0.00 83.1 25.6 4.6 SSE | 162 9.5 266 464 7.1 102.4 3.8
9/16/22 - 1400 85.6 81.8 38 54.7 0.00 83.5 25.6 3.1 S | 170 11.0 264 512 6.0 114.1 3.8
9/16/22 - 1300 84.6 78.6 36 51.9 0.00 82.6 25.5 1.9 SSW | 210 6.4 264 527 5.6 117.2 3.8
9/16/22 - 1200 81.3 76.9 42 53.8 0.00 82.7 25.5 1.5 W | 275 6.3 264 497 5.3 105.6 3.8
9/16/22 - 1100 78.4 73.0 50 55.5 0.00 82.7 25.5 0.9 N | 3 3.3 266 420 4.1 89.3 3.8
9/16/22 - 1000 73.5 69.8 59 56.3 0.00 83.1 25.6 1.1 W | 266 4.5 266 308 4.0 80.2 3.8
9/16/22 - 0900 70.7 66.4 65 56.1 0.00 83.1 25.7 0.4 NNW | 344 2.5 268 168 1.8 69.4 3.8
9/16/22 - 0800 66.5 56.6 82 54.7 0.00 83.7 25.8 0.0 SSE | 160 0.9 273 55 0.0 57.3 3.8
9/16/22 - 0700 56.8 56.2 87 52.6 0.00 84.1 25.8 0.1 SSE | 156 1.1 268 -23 0.0 50.4 3.8
9/16/22 - 0600 57.2 56.1 85 52.1 0.00 84.1 25.8 0.2 SSE | 154 1.5 254 -37 0.4 50.9 3.8
9/16/22 - 0500 58.3 57.2 83 52.5 0.00 84.8 25.8 0.3 SSE | 162 1.1 258 -46 0.0 51.1 3.8
9/16/22 - 0400 59.5 57.9 80 52.5 0.00 84.8 25.9 0.1 SSE | 156 0.9 274 -54 0.0 51.2 3.8
9/16/22 - 0300 60.6 59.1 78 52.8 0.00 85.2 25.9 0.2 SSE | 166 1.1 274 -55 0.0 54.1 3.8
9/16/22 - 0200 61.4 59.9 75 52.7 0.00 88.1 25.9 0.2 SSE | 160 1.6 271 -58 1.3 54.5 3.8
9/16/22 - 0100 62.4 61.3 73 53.0 0.00 86.5 26.0 0.1 S | 187 1.3 271 -59 0.0 55.1 3.8
9/16/22 - 0000 64.6 62.2 69 53.0 0.00 85.9 26.0 0.2 S | 178 1.6 270 -62 1.0 58.9 3.8
9/15/22 - 2300 66.5 64.3 65 53.6 0.00 85.5 26.0 0.5 S | 188 2.7 269 -68 1.9 62.6 3.8
9/15/22 - 2200 68.1 66.2 61 53.4 0.00 85.8 26.0 1.9 SW | 218 6.0 268 -72 4.3 66.2 3.8
9/15/22 - 2100 70.9 67.9 57 53.3 0.00 85.6 26.1 2.6 SW | 225 5.3 267 -75 4.0 69.4 3.8
9/15/22 - 2000 73.9 70.7 54 54.9 0.00 85.2 26.1 1.7 WNW | 288 5.1 267 -78 4.9 74.0 3.8
9/15/22 - 1900 79.2 73.7 48 55.5 0.00 85.1 26.1 1.1 NW | 316 5.3 267 -51 6.5 82.9 3.8
9/15/22 - 1800 81.4 79.0 43 55.8 0.00 84.5 26.0 3.0 W | 261 8.8 266 86 6.2 89.8 3.8
9/15/22 - 1700 81.4 79.5 46 57.7 0.00 84.2 26.0 4.5 SW | 215 9.4 266 244 7.2 94.4 3.8
9/15/22 - 1600 85.4 80.2 44 57.7 0.00 83.0 25.9 4.5 S | 190 10.5 266 368 9.2 102.5 3.8
9/15/22 - 1500 85.9 81.3 38 55.1 0.00 82.5 25.8 2.8 W | 272 8.4 265 458 7.0 104.4 3.8
9/15/22 - 1400 84.1 79.9 41 55.3 0.00 83.3 25.8 2.2 ENE | 70 6.1 264 521 5.8 113.0 3.8
9/15/22 - 1300 82.3 77.4 44 55.7 0.00 83.5 25.7 1.8 NNE | 16 6.0 265 512 5.8 112.7 3.8
9/15/22 - 1200 79.1 74.3 49 55.7 0.00 81.8 25.7 1.9 NE | 55 6.7 266 514 5.1 102.6 3.8
9/15/22 - 1100 75.0 69.8 57 55.9 0.00 83.4 25.7 1.3 ENE | 76 5.2 266 347 4.1 91.1 3.8
9/15/22 - 1000 70.7 68.0 63 56.1 0.00 83.5 25.8 1.1 E | 83 3.7 268 124 2.6 83.1 3.8
9/15/22 - 0900 68.3 66.5 72 58.1 0.00 80.8 25.9 0.7 E | 98 3.4 270 51 2.4 73.6 3.8
9/15/22 - 0800 66.8 64.8 78 58.8 0.00 81.1 25.9 0.3 E | 91 2.0 271 14 1.7 69.7 3.8
9/15/22 - 0700 65.0 63.0 80 57.8 0.00 81.2 25.9 0.0 SE | 133 1.0 272 -10 0.0 65.3 3.8
9/15/22 - 0600 63.1 59.6 85 57.0 0.00 81.8 25.9 0.0 SSE | 154 1.0 272 -7 0.0 63.3 3.8
9/15/22 - 0500 59.7 58.5 86 54.9 0.00 85.2 26.0 0.4 SSE | 151 2.1 259 -26 0.0 55.0 3.8
9/15/22 - 0400 60.2 59.0 83 54.3 0.00 85.3 26.0 0.2 SSE | 158 1.1 261 -45 0.0 52.0 3.8
9/15/22 - 0300 61.1 59.4 80 54.0 0.00 85.6 26.1 0.1 SSE | 159 1.0 274 -55 0.0 53.9 3.8
9/15/22 - 0200 62.2 60.8 77 54.2 0.00 85.9 26.1 0.1 SSE | 163 0.9 272 -58 0.0 55.9 3.8
9/15/22 - 0100 63.5 62.1 74 54.2 0.00 85.5 26.1 0.4 S | 181 2.2 271 -60 1.3 57.9 3.8
9/15/22 - 0000 66.3 63.0 70 54.5 0.00 86.3 26.1 0.1 SSE | 164 1.3 270 -63 0.0 61.5 3.8
9/14/22 - 2300 67.9 66.3 64 54.7 0.00 85.9 26.1 1.4 SW | 216 4.0 268 -69 2.7 65.1 3.8
9/14/22 - 2200 69.6 67.6 60 53.9 0.00 86.1 26.2 1.9 SSW | 211 4.7 268 -72